sensor_id;sensor_type;location;lat;lon;timestamp;P1;durP1;ratioP1;P2;durP2;ratioP2
1693;SDS011;71975;47.068;15.408;2023-12-28T00:00:39;32.10;;;24.47;;
1693;SDS011;71975;47.068;15.408;2023-12-28T00:05:42;36.73;;;29.10;;
1693;SDS011;71975;47.068;15.408;2023-12-28T00:10:45;29.93;;;26.67;;
1693;SDS011;71975;47.068;15.408;2023-12-28T00:15:50;37.83;;;26.47;;
1693;SDS011;71975;47.068;15.408;2023-12-28T00:20:53;32.60;;;25.47;;
1693;SDS011;71975;47.068;15.408;2023-12-28T00:25:56;27.83;;;24.80;;
1693;SDS011;71975;47.068;15.408;2023-12-28T00:31:00;32.60;;;25.03;;
1693;SDS011;71975;47.068;15.408;2023-12-28T00:36:03;26.30;;;20.90;;
1693;SDS011;71975;47.068;15.408;2023-12-28T00:41:07;47.60;;;21.57;;
1693;SDS011;71975;47.068;15.408;2023-12-28T00:46:11;36.97;;;20.10;;
1693;SDS011;71975;47.068;15.408;2023-12-28T00:51:14;20.50;;;17.83;;
1693;SDS011;71975;47.068;15.408;2023-12-28T00:56:17;24.97;;;20.00;;
1693;SDS011;71975;47.068;15.408;2023-12-28T01:01:23;25.10;;;19.63;;
1693;SDS011;71975;47.068;15.408;2023-12-28T01:06:26;29.30;;;20.73;;
1693;SDS011;71975;47.068;15.408;2023-12-28T01:11:30;31.97;;;20.70;;
1693;SDS011;71975;47.068;15.408;2023-12-28T01:16:35;25.70;;;19.40;;
1693;SDS011;71975;47.068;15.408;2023-12-28T01:21:40;30.83;;;22.37;;
1693;SDS011;71975;47.068;15.408;2023-12-28T01:26:44;24.60;;;19.97;;
1693;SDS011;71975;47.068;15.408;2023-12-28T01:31:48;60.97;;;21.73;;
1693;SDS011;71975;47.068;15.408;2023-12-28T01:36:51;76.83;;;21.50;;
1693;SDS011;71975;47.068;15.408;2023-12-28T01:41:54;57.13;;;20.47;;
1693;SDS011;71975;47.068;15.408;2023-12-28T01:46:58;47.53;;;19.70;;
1693;SDS011;71975;47.068;15.408;2023-12-28T01:52:01;69.93;;;19.70;;
1693;SDS011;71975;47.068;15.408;2023-12-28T01:57:06;25.27;;;18.10;;
1693;SDS011;71975;47.068;15.408;2023-12-28T02:02:11;35.37;;;19.53;;
1693;SDS011;71975;47.068;15.408;2023-12-28T02:07:14;36.43;;;18.60;;
1693;SDS011;71975;47.068;15.408;2023-12-28T02:12:18;44.20;;;20.83;;
1693;SDS011;71975;47.068;15.408;2023-12-28T02:17:23;39.77;;;19.63;;
1693;SDS011;71975;47.068;15.408;2023-12-28T02:22:32;29.13;;;19.77;;
1693;SDS011;71975;47.068;15.408;2023-12-28T02:27:39;23.93;;;18.97;;
1693;SDS011;71975;47.068;15.408;2023-12-28T02:32:47;31.43;;;18.73;;
1693;SDS011;71975;47.068;15.408;2023-12-28T02:37:58;26.57;;;19.50;;
1693;SDS011;71975;47.068;15.408;2023-12-28T02:43:05;25.10;;;18.53;;
1693;SDS011;71975;47.068;15.408;2023-12-28T02:48:08;18.43;;;14.97;;
1693;SDS011;71975;47.068;15.408;2023-12-28T02:53:12;39.03;;;17.03;;
1693;SDS011;71975;47.068;15.408;2023-12-28T02:58:17;23.23;;;15.60;;
1693;SDS011;71975;47.068;15.408;2023-12-28T03:03:21;31.73;;;16.50;;
1693;SDS011;71975;47.068;15.408;2023-12-28T03:08:25;63.00;;;19.70;;
1693;SDS011;71975;47.068;15.408;2023-12-28T03:13:29;24.87;;;18.27;;
1693;SDS011;71975;47.068;15.408;2023-12-28T03:18:33;28.43;;;19.00;;
1693;SDS011;71975;47.068;15.408;2023-12-28T03:23:36;60.83;;;21.03;;
1693;SDS011;71975;47.068;15.408;2023-12-28T03:28:41;21.83;;;18.10;;
1693;SDS011;71975;47.068;15.408;2023-12-28T03:33:44;41.40;;;18.30;;
1693;SDS011;71975;47.068;15.408;2023-12-28T03:38:47;32.13;;;19.67;;
1693;SDS011;71975;47.068;15.408;2023-12-28T03:43:51;47.67;;;21.73;;
1693;SDS011;71975;47.068;15.408;2023-12-28T03:48:54;31.00;;;19.17;;
1693;SDS011;71975;47.068;15.408;2023-12-28T03:53:57;22.57;;;18.00;;
1693;SDS011;71975;47.068;15.408;2023-12-28T03:59:02;29.13;;;18.30;;
1693;SDS011;71975;47.068;15.408;2023-12-28T04:04:05;18.33;;;16.43;;
1693;SDS011;71975;47.068;15.408;2023-12-28T04:09:08;19.63;;;17.70;;
1693;SDS011;71975;47.068;15.408;2023-12-28T04:14:14;20.00;;;17.27;;
1693;SDS011;71975;47.068;15.408;2023-12-28T04:19:17;66.87;;;20.37;;
1693;SDS011;71975;47.068;15.408;2023-12-28T04:24:21;31.53;;;18.17;;
1693;SDS011;71975;47.068;15.408;2023-12-28T04:29:26;24.57;;;17.83;;
1693;SDS011;71975;47.068;15.408;2023-12-28T04:34:29;22.43;;;15.40;;
1693;SDS011;71975;47.068;15.408;2023-12-28T04:39:32;44.77;;;17.97;;
1693;SDS011;71975;47.068;15.408;2023-12-28T04:44:38;16.20;;;13.13;;
1693;SDS011;71975;47.068;15.408;2023-12-28T04:49:41;16.83;;;15.30;;
1693;SDS011;71975;47.068;15.408;2023-12-28T04:54:44;41.70;;;15.67;;
1693;SDS011;71975;47.068;15.408;2023-12-28T04:59:49;19.83;;;16.13;;
1693;SDS011;71975;47.068;15.408;2023-12-28T05:04:52;15.33;;;13.43;;
1693;SDS011;71975;47.068;15.408;2023-12-28T05:09:55;20.63;;;13.73;;
1693;SDS011;71975;47.068;15.408;2023-12-28T05:14:59;15.33;;;13.73;;
1693;SDS011;71975;47.068;15.408;2023-12-28T05:20:02;15.27;;;13.30;;
1693;SDS011;71975;47.068;15.408;2023-12-28T05:25:06;14.00;;;12.57;;
1693;SDS011;71975;47.068;15.408;2023-12-28T05:30:11;26.73;;;14.20;;
1693;SDS011;71975;47.068;15.408;2023-12-28T05:35:15;15.27;;;13.47;;
1693;SDS011;71975;47.068;15.408;2023-12-28T05:40:18;15.57;;;13.63;;
1693;SDS011;71975;47.068;15.408;2023-12-28T05:45:22;14.03;;;12.73;;
1693;SDS011;71975;47.068;15.408;2023-12-28T05:50:25;16.47;;;14.77;;
1693;SDS011;71975;47.068;15.408;2023-12-28T05:55:28;15.87;;;13.83;;
1693;SDS011;71975;47.068;15.408;2023-12-28T06:00:32;14.83;;;13.43;;
1693;SDS011;71975;47.068;15.408;2023-12-28T06:05:36;15.13;;;13.53;;
1693;SDS011;71975;47.068;15.408;2023-12-28T06:10:39;13.17;;;11.57;;
1693;SDS011;71975;47.068;15.408;2023-12-28T06:15:43;12.57;;;11.33;;
1693;SDS011;71975;47.068;15.408;2023-12-28T06:20:46;13.40;;;12.10;;
1693;SDS011;71975;47.068;15.408;2023-12-28T06:25:50;14.87;;;13.40;;
1693;SDS011;71975;47.068;15.408;2023-12-28T06:30:54;14.77;;;13.37;;
1693;SDS011;71975;47.068;15.408;2023-12-28T06:36:04;15.77;;;14.20;;
1693;SDS011;71975;47.068;15.408;2023-12-28T06:41:11;16.33;;;14.80;;
1693;SDS011;71975;47.068;15.408;2023-12-28T06:46:16;13.97;;;12.60;;
1693;SDS011;71975;47.068;15.408;2023-12-28T06:51:19;14.17;;;12.87;;
1693;SDS011;71975;47.068;15.408;2023-12-28T06:56:24;16.47;;;14.77;;
1693;SDS011;71975;47.068;15.408;2023-12-28T07:01:28;14.97;;;13.03;;
1693;SDS011;71975;47.068;15.408;2023-12-28T07:06:31;13.93;;;12.53;;
1693;SDS011;71975;47.068;15.408;2023-12-28T07:11:34;15.47;;;13.87;;
1693;SDS011;71975;47.068;15.408;2023-12-28T07:16:38;14.90;;;13.37;;
1693;SDS011;71975;47.068;15.408;2023-12-28T07:21:41;17.30;;;14.67;;
1693;SDS011;71975;47.068;15.408;2023-12-28T07:26:44;16.33;;;14.50;;
1693;SDS011;71975;47.068;15.408;2023-12-28T07:31:48;14.87;;;13.50;;
1693;SDS011;71975;47.068;15.408;2023-12-28T07:36:51;18.60;;;15.67;;
1693;SDS011;71975;47.068;15.408;2023-12-28T07:41:54;14.67;;;13.17;;
1693;SDS011;71975;47.068;15.408;2023-12-28T07:46:59;13.80;;;12.40;;
1693;SDS011;71975;47.068;15.408;2023-12-28T07:52:02;14.20;;;12.67;;
1693;SDS011;71975;47.068;15.408;2023-12-28T07:57:05;18.90;;;15.70;;
1693;SDS011;71975;47.068;15.408;2023-12-28T08:02:10;17.30;;;13.33;;
1693;SDS011;71975;47.068;15.408;2023-12-28T08:07:13;20.00;;;14.63;;
1693;SDS011;71975;47.068;15.408;2023-12-28T08:12:16;15.73;;;14.03;;
1693;SDS011;71975;47.068;15.408;2023-12-28T08:17:21;16.07;;;14.07;;
1693;SDS011;71975;47.068;15.408;2023-12-28T08:22:24;17.90;;;13.03;;
1693;SDS011;71975;47.068;15.408;2023-12-28T08:27:27;17.27;;;15.20;;
1693;SDS011;71975;47.068;15.408;2023-12-28T08:32:31;17.60;;;14.10;;
1693;SDS011;71975;47.068;15.408;2023-12-28T08:37:35;15.60;;;14.00;;
1693;SDS011;71975;47.068;15.408;2023-12-28T08:42:37;16.00;;;14.30;;
1693;SDS011;71975;47.068;15.408;2023-12-28T08:47:42;14.00;;;12.60;;
1693;SDS011;71975;47.068;15.408;2023-12-28T08:52:45;14.80;;;13.30;;
1693;SDS011;71975;47.068;15.408;2023-12-28T08:57:48;15.63;;;12.80;;
1693;SDS011;71975;47.068;15.408;2023-12-28T09:02:52;16.57;;;13.60;;
1693;SDS011;71975;47.068;15.408;2023-12-28T09:07:55;13.00;;;11.23;;
1693;SDS011;71975;47.068;15.408;2023-12-28T09:12:59;10.50;;;9.50;;
1693;SDS011;71975;47.068;15.408;2023-12-28T09:18:04;17.47;;;15.63;;
1693;SDS011;71975;47.068;15.408;2023-12-28T09:23:07;15.70;;;11.10;;
1693;SDS011;71975;47.068;15.408;2023-12-28T09:28:11;10.80;;;9.80;;
1693;SDS011;71975;47.068;15.408;2023-12-28T09:33:15;10.73;;;9.73;;
1693;SDS011;71975;47.068;15.408;2023-12-28T09:38:19;11.97;;;9.97;;
1693;SDS011;71975;47.068;15.408;2023-12-28T09:43:23;9.23;;;8.30;;
1693;SDS011;71975;47.068;15.408;2023-12-28T09:48:28;8.80;;;7.90;;
1693;SDS011;71975;47.068;15.408;2023-12-28T09:53:33;7.80;;;7.00;;
1693;SDS011;71975;47.068;15.408;2023-12-28T09:58:36;13.77;;;10.60;;
1693;SDS011;71975;47.068;15.408;2023-12-28T10:03:41;12.17;;;8.07;;
1693;SDS011;71975;47.068;15.408;2023-12-28T10:08:44;10.77;;;9.67;;
1693;SDS011;71975;47.068;15.408;2023-12-28T10:13:48;10.10;;;8.97;;
1693;SDS011;71975;47.068;15.408;2023-12-28T10:18:55;10.23;;;8.93;;
1693;SDS011;71975;47.068;15.408;2023-12-28T10:23:59;10.27;;;9.13;;
1693;SDS011;71975;47.068;15.408;2023-12-28T10:29:02;10.93;;;9.83;;
1693;SDS011;71975;47.068;15.408;2023-12-28T10:34:08;10.67;;;9.57;;
1693;SDS011;71975;47.068;15.408;2023-12-28T10:39:11;9.10;;;8.20;;
1693;SDS011;71975;47.068;15.408;2023-12-28T10:44:22;9.30;;;8.40;;
1693;SDS011;71975;47.068;15.408;2023-12-28T10:49:31;12.37;;;8.77;;
1693;SDS011;71975;47.068;15.408;2023-12-28T10:54:41;16.50;;;13.53;;
1693;SDS011;71975;47.068;15.408;2023-12-28T10:59:51;10.20;;;9.20;;
1693;SDS011;71975;47.068;15.408;2023-12-28T11:05:05;12.00;;;9.73;;
1693;SDS011;71975;47.068;15.408;2023-12-28T11:10:10;11.73;;;9.77;;
1693;SDS011;71975;47.068;15.408;2023-12-28T11:15:15;15.23;;;9.20;;
1693;SDS011;71975;47.068;15.408;2023-12-28T11:20:21;10.03;;;9.13;;
1693;SDS011;71975;47.068;15.408;2023-12-28T11:25:25;9.83;;;8.67;;
1693;SDS011;71975;47.068;15.408;2023-12-28T11:30:33;11.37;;;9.13;;
1693;SDS011;71975;47.068;15.408;2023-12-28T11:35:39;8.47;;;7.17;;
1693;SDS011;71975;47.068;15.408;2023-12-28T11:40:44;10.70;;;8.13;;
1693;SDS011;71975;47.068;15.408;2023-12-28T11:45:49;9.60;;;8.60;;
1693;SDS011;71975;47.068;15.408;2023-12-28T11:50:56;9.70;;;8.80;;
1693;SDS011;71975;47.068;15.408;2023-12-28T11:56:00;10.57;;;8.60;;
1693;SDS011;71975;47.068;15.408;2023-12-28T12:01:04;9.67;;;8.73;;
1693;SDS011;71975;47.068;15.408;2023-12-28T12:06:09;10.70;;;9.17;;
1693;SDS011;71975;47.068;15.408;2023-12-28T12:11:12;7.83;;;7.13;;
1693;SDS011;71975;47.068;15.408;2023-12-28T12:16:15;9.50;;;8.50;;
1693;SDS011;71975;47.068;15.408;2023-12-28T12:21:20;14.47;;;11.37;;
1693;SDS011;71975;47.068;15.408;2023-12-28T12:26:23;8.90;;;8.07;;
1693;SDS011;71975;47.068;15.408;2023-12-28T12:31:27;10.67;;;7.47;;
1693;SDS011;71975;47.068;15.408;2023-12-28T12:36:32;7.73;;;6.90;;
1693;SDS011;71975;47.068;15.408;2023-12-28T12:41:35;8.07;;;7.37;;
1693;SDS011;71975;47.068;15.408;2023-12-28T12:46:38;10.67;;;9.33;;
1693;SDS011;71975;47.068;15.408;2023-12-28T12:51:46;9.07;;;7.70;;
1693;SDS011;71975;47.068;15.408;2023-12-28T12:56:49;9.20;;;7.77;;
1693;SDS011;71975;47.068;15.408;2023-12-28T13:01:54;10.90;;;9.00;;
1693;SDS011;71975;47.068;15.408;2023-12-28T13:06:58;9.90;;;9.00;;
1693;SDS011;71975;47.068;15.408;2023-12-28T13:12:01;11.80;;;9.50;;
1693;SDS011;71975;47.068;15.408;2023-12-28T13:17:04;10.13;;;9.07;;
1693;SDS011;71975;47.068;15.408;2023-12-28T13:22:09;9.97;;;9.03;;
1693;SDS011;71975;47.068;15.408;2023-12-28T13:27:12;9.27;;;8.47;;
1693;SDS011;71975;47.068;15.408;2023-12-28T13:32:16;9.67;;;8.67;;
1693;SDS011;71975;47.068;15.408;2023-12-28T13:37:20;10.10;;;9.10;;
1693;SDS011;71975;47.068;15.408;2023-12-28T13:42:23;10.20;;;9.20;;
1693;SDS011;71975;47.068;15.408;2023-12-28T13:47:26;10.70;;;9.57;;
1693;SDS011;71975;47.068;15.408;2023-12-28T13:52:30;9.80;;;7.90;;
1693;SDS011;71975;47.068;15.408;2023-12-28T13:57:33;10.30;;;8.63;;
1693;SDS011;71975;47.068;15.408;2023-12-28T14:02:36;7.57;;;6.87;;
1693;SDS011;71975;47.068;15.408;2023-12-28T14:07:41;9.03;;;8.13;;
1693;SDS011;71975;47.068;15.408;2023-12-28T14:12:43;12.20;;;9.10;;
1693;SDS011;71975;47.068;15.408;2023-12-28T14:17:46;9.87;;;7.93;;
1693;SDS011;71975;47.068;15.408;2023-12-28T14:22:51;8.10;;;7.37;;
1693;SDS011;71975;47.068;15.408;2023-12-28T14:27:54;9.07;;;6.83;;
1693;SDS011;71975;47.068;15.408;2023-12-28T14:32:58;8.63;;;7.83;;
1693;SDS011;71975;47.068;15.408;2023-12-28T14:38:03;11.33;;;7.80;;
1693;SDS011;71975;47.068;15.408;2023-12-28T14:43:07;8.57;;;7.77;;
1693;SDS011;71975;47.068;15.408;2023-12-28T14:48:10;10.40;;;9.00;;
1693;SDS011;71975;47.068;15.408;2023-12-28T14:53:14;7.47;;;6.67;;
1693;SDS011;71975;47.068;15.408;2023-12-28T14:58:17;7.83;;;7.03;;
1693;SDS011;71975;47.068;15.408;2023-12-28T15:03:23;10.47;;;9.40;;
1693;SDS011;71975;47.068;15.408;2023-12-28T15:08:27;11.00;;;7.80;;
1693;SDS011;71975;47.068;15.408;2023-12-28T15:13:30;8.70;;;7.90;;
1693;SDS011;71975;47.068;15.408;2023-12-28T15:18:34;9.03;;;8.13;;
1693;SDS011;71975;47.068;15.408;2023-12-28T15:23:39;10.90;;;8.00;;
1693;SDS011;71975;47.068;15.408;2023-12-28T15:28:45;7.50;;;6.47;;
1693;SDS011;71975;47.068;15.408;2023-12-28T15:33:49;14.57;;;13.03;;
1693;SDS011;71975;47.068;15.408;2023-12-28T15:38:54;8.53;;;7.57;;
1693;SDS011;71975;47.068;15.408;2023-12-28T15:43:56;8.53;;;7.73;;
1693;SDS011;71975;47.068;15.408;2023-12-28T15:49:00;9.10;;;8.20;;
1693;SDS011;71975;47.068;15.408;2023-12-28T15:54:05;13.10;;;8.50;;
1693;SDS011;71975;47.068;15.408;2023-12-28T15:59:08;10.43;;;7.83;;
1693;SDS011;71975;47.068;15.408;2023-12-28T16:04:11;10.70;;;8.60;;
1693;SDS011;71975;47.068;15.408;2023-12-28T16:09:16;13.97;;;9.57;;
1693;SDS011;71975;47.068;15.408;2023-12-28T16:14:19;11.57;;;9.20;;
1693;SDS011;71975;47.068;15.408;2023-12-28T16:19:22;12.33;;;10.23;;
1693;SDS011;71975;47.068;15.408;2023-12-28T16:24:27;11.23;;;9.40;;
1693;SDS011;71975;47.068;15.408;2023-12-28T16:29:30;15.53;;;11.10;;
1693;SDS011;71975;47.068;15.408;2023-12-28T16:34:33;11.70;;;10.40;;
1693;SDS011;71975;47.068;15.408;2023-12-28T16:39:39;11.07;;;9.50;;
1693;SDS011;71975;47.068;15.408;2023-12-28T16:44:42;14.00;;;10.20;;
1693;SDS011;71975;47.068;15.408;2023-12-28T16:49:45;14.20;;;12.07;;
1693;SDS011;71975;47.068;15.408;2023-12-28T16:54:50;24.27;;;11.60;;
1693;SDS011;71975;47.068;15.408;2023-12-28T16:59:53;12.00;;;10.80;;
1693;SDS011;71975;47.068;15.408;2023-12-28T17:05:11;16.90;;;11.33;;
1693;SDS011;71975;47.068;15.408;2023-12-28T17:10:16;13.77;;;10.70;;
1693;SDS011;71975;47.068;15.408;2023-12-28T17:15:20;13.67;;;11.53;;
1693;SDS011;71975;47.068;15.408;2023-12-28T17:20:24;13.13;;;10.27;;
1693;SDS011;71975;47.068;15.408;2023-12-28T17:25:31;12.77;;;11.47;;
1693;SDS011;71975;47.068;15.408;2023-12-28T17:30:39;13.13;;;9.53;;
1693;SDS011;71975;47.068;15.408;2023-12-28T17:35:46;17.03;;;10.57;;
1693;SDS011;71975;47.068;15.408;2023-12-28T17:40:51;13.90;;;9.63;;
1693;SDS011;71975;47.068;15.408;2023-12-28T17:45:56;13.40;;;8.73;;
1693;SDS011;71975;47.068;15.408;2023-12-28T17:51:07;10.70;;;9.10;;
1693;SDS011;71975;47.068;15.408;2023-12-28T17:56:12;10.37;;;7.53;;
1693;SDS011;71975;47.068;15.408;2023-12-28T18:01:18;12.77;;;9.03;;
1693;SDS011;71975;47.068;15.408;2023-12-28T18:06:22;14.70;;;9.10;;
1693;SDS011;71975;47.068;15.408;2023-12-28T18:11:28;11.60;;;8.20;;
1693;SDS011;71975;47.068;15.408;2023-12-28T18:16:31;9.73;;;8.63;;
1693;SDS011;71975;47.068;15.408;2023-12-28T18:21:36;13.17;;;10.60;;
1693;SDS011;71975;47.068;15.408;2023-12-28T18:26:43;13.50;;;10.70;;
1693;SDS011;71975;47.068;15.408;2023-12-28T18:31:47;14.27;;;12.40;;
1693;SDS011;71975;47.068;15.408;2023-12-28T18:36:50;12.60;;;11.30;;
1693;SDS011;71975;47.068;15.408;2023-12-28T18:41:56;16.60;;;13.33;;
1693;SDS011;71975;47.068;15.408;2023-12-28T18:47:00;15.20;;;13.60;;
1693;SDS011;71975;47.068;15.408;2023-12-28T18:52:04;19.43;;;14.63;;
1693;SDS011;71975;47.068;15.408;2023-12-28T18:57:10;17.07;;;14.13;;
1693;SDS011;71975;47.068;15.408;2023-12-28T19:02:13;13.93;;;11.47;;
1693;SDS011;71975;47.068;15.408;2023-12-28T19:07:17;14.33;;;12.07;;
1693;SDS011;71975;47.068;15.408;2023-12-28T19:12:23;18.00;;;15.60;;
1693;SDS011;71975;47.068;15.408;2023-12-28T19:17:27;17.17;;;15.40;;
1693;SDS011;71975;47.068;15.408;2023-12-28T19:22:32;15.87;;;13.60;;
1693;SDS011;71975;47.068;15.408;2023-12-28T19:27:39;16.33;;;13.33;;
1693;SDS011;71975;47.068;15.408;2023-12-28T19:32:44;18.83;;;14.23;;
1693;SDS011;71975;47.068;15.408;2023-12-28T19:37:50;17.27;;;14.17;;
1693;SDS011;71975;47.068;15.408;2023-12-28T19:42:57;19.80;;;15.80;;
1693;SDS011;71975;47.068;15.408;2023-12-28T19:48:02;18.77;;;14.07;;
1693;SDS011;71975;47.068;15.408;2023-12-28T19:53:09;15.67;;;14.00;;
1693;SDS011;71975;47.068;15.408;2023-12-28T19:58:17;18.70;;;14.60;;
1693;SDS011;71975;47.068;15.408;2023-12-28T20:03:21;13.57;;;11.63;;
1693;SDS011;71975;47.068;15.408;2023-12-28T20:08:27;21.53;;;15.70;;
1693;SDS011;71975;47.068;15.408;2023-12-28T20:13:32;16.70;;;15.00;;
1693;SDS011;71975;47.068;15.408;2023-12-28T20:18:37;16.10;;;13.27;;
1693;SDS011;71975;47.068;15.408;2023-12-28T20:23:41;20.20;;;16.10;;
1693;SDS011;71975;47.068;15.408;2023-12-28T20:28:47;31.00;;;22.93;;
1693;SDS011;71975;47.068;15.408;2023-12-28T20:33:52;19.90;;;16.17;;
1693;SDS011;71975;47.068;15.408;2023-12-28T20:38:57;25.50;;;18.20;;
1693;SDS011;71975;47.068;15.408;2023-12-28T20:44:04;23.53;;;17.93;;
1693;SDS011;71975;47.068;15.408;2023-12-28T20:49:09;23.67;;;16.23;;
1693;SDS011;71975;47.068;15.408;2023-12-28T20:54:15;17.93;;;15.20;;
1693;SDS011;71975;47.068;15.408;2023-12-28T20:59:23;17.83;;;15.80;;
1693;SDS011;71975;47.068;15.408;2023-12-28T21:04:28;16.87;;;14.00;;
1693;SDS011;71975;47.068;15.408;2023-12-28T21:09:31;22.10;;;19.60;;
1693;SDS011;71975;47.068;15.408;2023-12-28T21:14:36;19.53;;;16.40;;
1693;SDS011;71975;47.068;15.408;2023-12-28T21:19:41;20.97;;;16.47;;
1693;SDS011;71975;47.068;15.408;2023-12-28T21:24:48;21.83;;;16.23;;
1693;SDS011;71975;47.068;15.408;2023-12-28T21:29:53;20.57;;;17.00;;
1693;SDS011;71975;47.068;15.408;2023-12-28T21:34:56;18.63;;;15.33;;
1693;SDS011;71975;47.068;15.408;2023-12-28T21:39:59;17.27;;;15.47;;
1693;SDS011;71975;47.068;15.408;2023-12-28T21:45:03;19.27;;;15.43;;
1693;SDS011;71975;47.068;15.408;2023-12-28T21:50:08;20.57;;;15.77;;
1693;SDS011;71975;47.068;15.408;2023-12-28T21:55:11;18.20;;;13.40;;
1693;SDS011;71975;47.068;15.408;2023-12-28T22:00:16;25.43;;;17.90;;
1693;SDS011;71975;47.068;15.408;2023-12-28T22:05:19;21.30;;;15.43;;
1693;SDS011;71975;47.068;15.408;2023-12-28T22:10:23;21.10;;;16.77;;
1693;SDS011;71975;47.068;15.408;2023-12-28T22:15:27;22.30;;;14.53;;
1693;SDS011;71975;47.068;15.408;2023-12-28T22:20:30;21.63;;;18.53;;
1693;SDS011;71975;47.068;15.408;2023-12-28T22:25:33;17.77;;;15.37;;
1693;SDS011;71975;47.068;15.408;2023-12-28T22:30:38;19.30;;;16.00;;
1693;SDS011;71975;47.068;15.408;2023-12-28T22:35:41;19.17;;;14.40;;
1693;SDS011;71975;47.068;15.408;2023-12-28T22:40:46;18.37;;;14.30;;
1693;SDS011;71975;47.068;15.408;2023-12-28T22:45:51;20.30;;;14.40;;
1693;SDS011;71975;47.068;15.408;2023-12-28T22:50:54;22.80;;;16.63;;
1693;SDS011;71975;47.068;15.408;2023-12-28T22:55:57;18.80;;;15.67;;
1693;SDS011;71975;47.068;15.408;2023-12-28T23:01:01;18.27;;;14.97;;
1693;SDS011;71975;47.068;15.408;2023-12-28T23:06:05;23.80;;;16.23;;
1693;SDS011;71975;47.068;15.408;2023-12-28T23:11:08;21.47;;;16.17;;
1693;SDS011;71975;47.068;15.408;2023-12-28T23:16:12;19.07;;;14.07;;
1693;SDS011;71975;47.068;15.408;2023-12-28T23:21:15;17.87;;;14.67;;
1693;SDS011;71975;47.068;15.408;2023-12-28T23:26:19;17.37;;;15.30;;
1693;SDS011;71975;47.068;15.408;2023-12-28T23:31:25;18.80;;;15.60;;
1693;SDS011;71975;47.068;15.408;2023-12-28T23:36:28;17.10;;;13.87;;
1693;SDS011;71975;47.068;15.408;2023-12-28T23:41:31;22.27;;;16.00;;
1693;SDS011;71975;47.068;15.408;2023-12-28T23:46:37;21.03;;;15.20;;
1693;SDS011;71975;47.068;15.408;2023-12-28T23:51:40;23.43;;;16.20;;
1693;SDS011;71975;47.068;15.408;2023-12-28T23:56:43;23.03;;;19.80;;
